Time;durP1;ratioP1;P1;durP2;ratioP2;P2;SDS_P1;SDS_P2;PMS_P1;PMS_P2;Temp;Humidity;BMP_temperature;BMP_pressure;BME280_temperature;BME280_humidity;BME280_pressure;Samples;Min_cycle;Max_cycle;Signal;HPM_P1;HPM_P2
2023/05/08 00:00:21;;;;;;;8.10;7.55;;;17.70;99.90;;;;;;5086469;28;20187;-88
2023/05/08 00:02:47;;;;;;;8.95;8.30;;;17.70;99.90;;;;;;5086744;28;20345;-92
2023/05/08 00:05:13;;;;;;;9.02;8.35;;;17.70;99.90;;;;;;5097763;28;20219;-94
2023/05/08 00:07:38;;;;;;;9.75;8.90;;;17.70;99.90;;;;;;5097437;28;20203;-93
2023/05/08 00:10:06;;;;;;;9.57;8.88;;;17.60;99.90;;;;;;5097567;28;20178;-93
2023/05/08 00:12:32;;;;;;;9.45;8.73;;;17.50;99.90;;;;;;5100381;22;20299;-85
2023/05/08 00:14:58;;;;;;;10.43;9.55;;;17.60;99.90;;;;;;5076862;28;20202;-87
2023/05/08 00:17:24;;;;;;;12.57;11.57;;;17.50;99.90;;;;;;5075233;28;20211;-86
2023/05/08 00:19:49;;;;;;;11.95;10.90;;;17.60;99.90;;;;;;5069442;28;20664;-86
2023/05/08 00:22:15;;;;;;;12.52;11.48;;;17.70;99.90;;;;;;5059105;28;20188;-87
2023/05/08 00:24:41;;;;;;;13.27;12.15;;;17.70;99.90;;;;;;5059490;28;20223;-87
2023/05/08 00:27:07;;;;;;;13.10;11.98;;;17.70;99.90;;;;;;5058203;28;20207;-86
2023/05/08 00:29:33;;;;;;;13.15;12.05;;;17.70;99.90;;;;;;5058308;28;20287;-86
2023/05/08 00:31:59;;;;;;;12.98;11.98;;;17.70;99.90;;;;;;5058341;28;20226;-86
2023/05/08 00:34:25;;;;;;;12.45;10.98;;;17.80;99.90;;;;;;5057669;28;20179;-88
2023/05/08 00:36:51;;;;;;;12.07;11.02;;;17.80;99.90;;;;;;5057530;28;20239;-86
2023/05/08 00:39:17;;;;;;;11.63;10.63;;;17.80;99.90;;;;;;5046030;28;20188;-87
2023/05/08 00:41:43;;;;;;;11.15;10.32;;;17.60;99.90;;;;;;5044737;28;20266;-86
2023/05/08 00:44:09;;;;;;;10.95;9.93;;;17.50;99.90;;;;;;5050575;28;20177;-88
2023/05/08 00:46:35;;;;;;;10.45;9.65;;;17.60;99.90;;;;;;5035483;28;20418;-87
2023/05/08 00:49:03;;;;;;;10.68;9.77;;;17.60;99.90;;;;;;5036668;28;20177;-87
2023/05/08 00:51:30;;;;;;;11.07;10.10;;;17.70;99.90;;;;;;5052311;28;20180;-86
2023/05/08 00:53:57;;;;;;;11.55;10.65;;;17.70;99.90;;;;;;5036400;28;20192;-88
2023/05/08 00:56:24;;;;;;;10.85;9.95;;;17.70;99.90;;;;;;5036720;28;20214;-87
2023/05/08 00:58:50;;;;;;;11.45;10.57;;;17.70;99.90;;;;;;5037306;28;20240;-86
2023/05/08 01:01:17;;;;;;;11.55;10.65;;;17.70;99.90;;;;;;5038383;28;20173;-86
2023/05/08 01:03:43;;;;;;;11.55;10.55;;;17.70;99.90;;;;;;5055564;28;20512;-86
2023/05/08 01:06:09;;;;;;;10.75;9.85;;;17.70;99.90;;;;;;5056460;28;20203;-87
2023/05/08 01:08:35;;;;;;;11.48;10.68;;;17.80;99.90;;;;;;5056002;28;20287;-87
2023/05/08 01:11:32;;;;;;;13.90;12.65;;;17.80;99.90;;;;;;5055552;28;20183;-87
2023/05/08 01:14:04;;;;;;;14.90;13.43;;;17.80;99.90;;;;;;5056075;28;20157;-86
2023/05/08 01:16:50;;;;;;;15.02;13.60;;;17.80;99.90;;;;;;5057623;28;20244;-86
2023/05/08 01:19:19;;;;;;;18.25;16.77;;;17.90;99.90;;;;;;5058653;28;20183;-87
2023/05/08 01:21:53;;;;;;;15.48;14.15;;;17.80;99.90;;;;;;5062023;28;20201;-86
2023/05/08 01:24:31;;;;;;;14.82;13.63;;;17.70;99.90;;;;;;5068630;28;20224;-86
2023/05/08 01:27:33;;;;;;;15.00;13.82;;;17.70;99.90;;;;;;5069959;28;20188;-87
2023/05/08 01:30:22;;;;;;;15.27;13.98;;;17.70;99.90;;;;;;5068694;28;20180;-87
2023/05/08 01:33:03;;;;;;;14.98;13.63;;;17.70;99.90;;;;;;5019159;28;20224;-87
2023/05/08 01:35:35;;;;;;;14.40;13.20;;;17.70;99.90;;;;;;5053828;28;20176;-87
2023/05/08 01:38:21;;;;;;;14.50;13.25;;;17.60;99.90;;;;;;5048618;28;20204;-87
2023/05/08 01:41:12;;;;;;;13.23;12.10;;;17.60;99.90;;;;;;5056059;28;20172;-86
2023/05/08 01:43:49;;;;;;;13.88;12.77;;;17.60;99.90;;;;;;5034102;28;20181;-86
2023/05/08 01:46:22;;;;;;;13.70;12.57;;;17.60;99.90;;;;;;5034452;28;20207;-85
2023/05/08 01:49:16;;;;;;;12.68;11.57;;;17.60;99.90;;;;;;5033820;28;20169;-86
2023/05/08 01:51:52;;;;;;;13.00;12.00;;;17.70;99.90;;;;;;5028854;28;20232;-87
2023/05/08 01:54:22;;;;;;;11.48;10.45;;;17.70;99.90;;;;;;5039037;28;20279;-87
2023/05/08 01:56:50;;;;;;;11.30;10.40;;;17.70;99.90;;;;;;5041803;28;20189;-86
2023/05/08 01:59:20;;;;;;;11.57;10.68;;;17.70;99.90;;;;;;5039001;28;20242;-87
2023/05/08 02:01:48;;;;;;;11.63;10.82;;;17.80;99.90;;;;;;5039048;28;20356;-87
2023/05/08 02:04:15;;;;;;;11.95;10.95;;;17.80;99.90;;;;;;5038998;28;20173;-86
2023/05/08 02:06:41;;;;;;;12.60;11.30;;;17.70;99.90;;;;;;5040048;28;20205;-88
2023/05/08 02:09:09;;;;;;;12.52;11.52;;;17.60;99.90;;;;;;5039060;28;20165;-87
2023/05/08 02:11:37;;;;;;;12.82;11.38;;;17.40;99.90;;;;;;5037792;28;20184;-86
2023/05/08 02:14:04;;;;;;;11.45;10.48;;;17.40;99.90;;;;;;5038283;28;20185;-88
2023/05/08 02:16:31;;;;;;;12.15;11.25;;;17.50;99.90;;;;;;5039997;28;20192;-86
2023/05/08 02:18:59;;;;;;;11.57;10.63;;;17.50;99.90;;;;;;5022278;28;20275;-88
2023/05/08 02:21:26;;;;;;;12.70;11.63;;;17.50;99.90;;;;;;5058799;28;20210;-87
2023/05/08 02:23:55;;;;;;;11.50;10.68;;;17.50;99.90;;;;;;5058409;28;20180;-87
2023/05/08 02:26:22;;;;;;;10.88;10.07;;;17.50;99.90;;;;;;5060761;28;20196;-87
2023/05/08 02:28:51;;;;;;;10.75;9.95;;;17.50;99.90;;;;;;5060115;28;20176;-86
2023/05/08 02:31:18;;;;;;;11.18;10.27;;;17.50;99.90;;;;;;5059265;28;20189;-87
2023/05/08 02:33:45;;;;;;;11.20;10.40;;;17.40;99.90;;;;;;5057069;28;20195;-86
2023/05/08 02:36:14;;;;;;;10.55;9.75;;;17.40;99.90;;;;;;5041535;28;20205;-85
2023/05/08 02:38:43;;;;;;;11.10;10.27;;;17.30;99.90;;;;;;5057931;28;20205;-87
2023/05/08 02:41:10;;;;;;;10.05;9.35;;;17.30;99.90;;;;;;5021677;28;20202;-88
2023/05/08 02:43:37;;;;;;;11.13;10.18;;;17.40;99.90;;;;;;5037586;28;20173;-87
2023/05/08 02:46:15;;;;;;;10.93;9.93;;;17.30;99.90;;;;;;5038043;28;20293;-87
2023/05/08 02:48:56;;;;;;;10.55;9.75;;;17.30;99.90;;;;;;5038343;28;20629;-87
2023/05/08 02:51:37;;;;;;;10.68;9.88;;;17.40;99.90;;;;;;5038181;28;20637;-87
2023/05/08 02:54:05;;;;;;;11.82;10.82;;;17.50;99.90;;;;;;5039811;28;20231;-87
2023/05/08 02:56:45;;;;;;;11.65;10.75;;;17.40;99.90;;;;;;5043500;28;20184;-89
2023/05/08 02:59:38;;;;;;;12.23;11.18;;;17.40;99.90;;;;;;5038630;28;20177;-86
2023/05/08 03:02:46;;;;;;;12.60;11.55;;;17.40;99.90;;;;;;5037495;28;20188;-86
2023/05/08 03:05:34;;;;;;;12.75;11.75;;;17.40;99.90;;;;;;5026909;28;20688;-86
2023/05/08 03:08:05;;;;;;;12.38;11.38;;;17.40;99.90;;;;;;5038378;28;20197;-87
2023/05/08 03:10:36;;;;;;;11.93;11.02;;;17.40;99.90;;;;;;5037630;28;20176;-86
2023/05/08 03:13:04;;;;;;;11.77;10.85;;;17.40;99.90;;;;;;5046384;28;20203;-86
2023/05/08 03:15:39;;;;;;;11.93;10.93;;;17.50;99.90;;;;;;5059295;28;20269;-87
2023/05/08 03:18:13;;;;;;;11.90;10.90;;;17.40;99.90;;;;;;5061153;28;20215;-87
2023/05/08 03:20:43;;;;;;;11.43;10.63;;;17.30;99.90;;;;;;5059968;28;20310;-86
2023/05/08 03:23:10;;;;;;;11.13;10.32;;;17.30;99.90;;;;;;5058702;28;20240;-87
2023/05/08 03:25:38;;;;;;;11.05;10.10;;;17.40;99.90;;;;;;5059048;28;20204;-87
2023/05/08 03:28:05;;;;;;;10.80;9.90;;;17.40;99.90;;;;;;5057394;28;20687;-87
2023/05/08 03:30:35;;;;;;;11.65;10.73;;;17.40;99.90;;;;;;5047669;28;20185;-87
2023/05/08 03:33:06;;;;;;;11.57;10.68;;;17.40;99.90;;;;;;5040565;28;20180;-87
2023/05/08 03:35:35;;;;;;;11.50;10.50;;;17.40;99.90;;;;;;5055570;28;20170;-88
2023/05/08 03:38:01;;;;;;;11.65;10.75;;;17.40;99.90;;;;;;5056342;28;20204;-87
2023/05/08 03:40:27;;;;;;;11.52;10.52;;;17.40;99.90;;;;;;5058269;28;20180;-87
2023/05/08 03:42:54;;;;;;;11.10;10.30;;;17.50;99.90;;;;;;5041388;28;20823;-87
2023/05/08 03:45:20;;;;;;;11.00;10.20;;;17.50;99.90;;;;;;5046117;28;20680;-85
2023/05/08 03:47:46;;;;;;;11.23;10.27;;;17.50;99.90;;;;;;5050586;28;20197;-87
2023/05/08 03:50:12;;;;;;;10.73;9.93;;;17.40;99.90;;;;;;5035805;28;20228;-85
2023/05/08 03:52:38;;;;;;;11.77;10.93;;;17.30;99.90;;;;;;5021476;28;20185;-88
2023/05/08 03:55:04;;;;;;;11.15;10.35;;;17.30;99.90;;;;;;5019907;28;20185;-87
2023/05/08 03:57:40;;;;;;;11.93;11.00;;;17.30;99.90;;;;;;5037245;28;20220;-87
2023/05/08 04:00:25;;;;;;;12.05;11.15;;;17.30;99.90;;;;;;5037165;28;20195;-88
2023/05/08 04:03:19;;;;;;;11.55;10.65;;;17.30;99.90;;;;;;5021221;28;20161;-88
2023/05/08 04:06:33;;;;;;;10.82;10.02;;;17.30;99.90;;;;;;5053931;28;20204;-88
2023/05/08 04:09:24;;;;;;;12.73;11.63;;;17.30;99.90;;;;;;5022562;28;20208;-87
2023/05/08 04:12:11;;;;;;;13.40;12.30;;;17.30;99.90;;;;;;5039995;28;20199;-88
2023/05/08 04:14:42;;;;;;;12.10;11.18;;;17.40;99.90;;;;;;5039829;28;20175;-87
2023/05/08 04:17:10;;;;;;;12.25;11.35;;;17.40;99.90;;;;;;5047651;28;20200;-90
2023/05/08 04:19:41;;;;;;;13.07;11.90;;;17.40;99.90;;;;;;5054810;28;20317;-88
2023/05/08 04:22:10;;;;;;;12.68;11.57;;;17.40;99.90;;;;;;5057637;28;20168;-88
2023/05/08 04:24:42;;;;;;;12.52;11.57;;;17.40;99.90;;;;;;5047544;28;20184;-86
2023/05/08 04:27:09;;;;;;;13.10;12.10;;;17.50;99.90;;;;;;5040646;28;20452;-87
2023/05/08 04:29:36;;;;;;;13.48;12.38;;;17.40;99.90;;;;;;5034103;28;20195;-87
2023/05/08 04:32:04;;;;;;;13.48;12.48;;;17.40;99.90;;;;;;5044671;28;20187;-89
2023/05/08 04:34:30;;;;;;;12.77;11.77;;;17.40;99.90;;;;;;5044273;28;20198;-86
2023/05/08 04:36:56;;;;;;;14.27;13.07;;;17.50;99.90;;;;;;5053584;28;20333;-87
2023/05/08 04:39:22;;;;;;;14.80;13.60;;;17.40;99.90;;;;;;5054252;28;20183;-87
2023/05/08 04:41:50;;;;;;;14.65;13.43;;;17.40;99.90;;;;;;5053806;28;20237;-86
2023/05/08 04:44:16;;;;;;;16.25;14.85;;;17.50;99.90;;;;;;5049141;28;20204;-85
2023/05/08 04:46:41;;;;;;;16.65;15.25;;;17.50;99.90;;;;;;5035267;28;20208;-86
2023/05/08 04:49:07;;;;;;;17.10;15.65;;;17.50;99.90;;;;;;5035322;28;20180;-85
2023/05/08 04:51:34;;;;;;;16.20;14.85;;;17.40;99.90;;;;;;5034892;28;20168;-86
2023/05/08 04:53:59;;;;;;;15.32;13.85;;;17.40;99.90;;;;;;5016527;28;20267;-86
2023/05/08 04:56:25;;;;;;;16.27;14.88;;;17.40;99.90;;;;;;5033864;28;20550;-86
2023/05/08 04:58:51;;;;;;;16.15;14.52;;;17.40;99.90;;;;;;5034246;28;20177;-85
2023/05/08 05:01:17;;;;;;;17.33;15.85;;;17.30;99.90;;;;;;5046804;28;20251;-86
2023/05/08 05:03:43;;;;;;;15.48;14.07;;;17.30;99.90;;;;;;5057677;28;20219;-87
2023/05/08 05:06:09;;;;;;;15.77;14.40;;;17.30;99.90;;;;;;5018757;28;20204;-87
2023/05/08 05:08:34;;;;;;;16.33;14.80;;;17.30;99.90;;;;;;5034393;28;20204;-87
2023/05/08 05:11:00;;;;;;;15.70;14.30;;;17.40;99.90;;;;;;5033916;28;20180;-87
2023/05/08 05:13:26;;;;;;;18.05;16.40;;;17.40;99.90;;;;;;5034454;28;20692;-88
2023/05/08 05:15:53;;;;;;;19.13;17.45;;;17.40;99.90;;;;;;5035114;28;20180;-87
2023/05/08 05:18:19;;;;;;;18.90;17.23;;;17.30;99.90;;;;;;5033676;28;20192;-87
2023/05/08 05:20:45;;;;;;;22.27;20.23;;;17.30;99.90;;;;;;5047234;28;20526;-89
2023/05/08 05:23:11;;;;;;;20.05;18.35;;;17.40;99.90;;;;;;5050678;28;20245;-88
2023/05/08 05:25:37;;;;;;;20.65;18.60;;;17.40;99.90;;;;;;5039130;28;20230;-88
2023/05/08 05:28:03;;;;;;;20.38;18.65;;;17.50;99.90;;;;;;5057928;28;20565;-87
2023/05/08 05:30:29;;;;;;;20.30;18.60;;;17.60;99.90;;;;;;5058412;28;20180;-87
2023/05/08 05:32:54;;;;;;;21.02;19.17;;;17.50;99.90;;;;;;5058043;28;20676;-87
2023/05/08 05:35:20;;;;;;;19.17;17.58;;;17.60;99.90;;;;;;5050877;28;20242;-87
2023/05/08 05:37:45;;;;;;;18.65;17.05;;;17.60;99.90;;;;;;5040738;28;20209;-85
2023/05/08 05:40:12;;;;;;;19.20;17.40;;;17.60;99.90;;;;;;5054566;28;20234;-87
2023/05/08 05:42:38;;;;;;;19.52;17.77;;;17.60;99.90;;;;;;5064137;28;20172;-87
2023/05/08 05:45:04;;;;;;;18.80;17.27;;;17.60;99.90;;;;;;5033817;28;20219;-88
2023/05/08 05:47:30;;;;;;;17.10;15.70;;;17.60;99.90;;;;;;5042251;28;20230;-88
2023/05/08 05:49:56;;;;;;;19.58;17.80;;;17.50;99.90;;;;;;5038799;28;20200;-89
2023/05/08 05:52:23;;;;;;;19.15;17.55;;;17.50;99.90;;;;;;5036642;28;20191;-87
2023/05/08 05:54:48;;;;;;;18.67;17.20;;;17.40;99.90;;;;;;5019860;28;20203;-87
2023/05/08 05:57:14;;;;;;;18.63;17.13;;;17.30;99.90;;;;;;5037206;28;20921;-87
2023/05/08 05:59:40;;;;;;;16.45;15.07;;;17.30;99.90;;;;;;5038182;28;20947;-88
2023/05/08 06:02:09;;;;;;;18.08;16.58;;;17.40;99.90;;;;;;5026488;28;20192;-87
2023/05/08 06:04:35;;;;;;;18.13;16.58;;;17.40;99.90;;;;;;5029020;28;20260;-89
2023/05/08 06:07:01;;;;;;;18.52;17.02;;;17.40;99.90;;;;;;5050178;28;20201;-88
2023/05/08 06:09:26;;;;;;;17.42;15.98;;;17.30;99.90;;;;;;5051645;28;20195;-88
2023/05/08 06:11:53;;;;;;;18.15;16.65;;;17.20;99.90;;;;;;5056722;28;20215;-86
2023/05/08 06:14:21;;;;;;;17.13;15.82;;;17.30;99.90;;;;;;5025819;28;20213;-87
2023/05/08 06:16:46;;;;;;;18.38;16.88;;;17.30;99.90;;;;;;5041982;28;22175;-88
2023/05/08 06:19:12;;;;;;;17.63;16.23;;;17.40;99.90;;;;;;5030774;28;20220;-88
2023/05/08 06:21:38;;;;;;;18.00;16.48;;;17.40;99.90;;;;;;5054113;28;20280;-87
2023/05/08 06:24:05;;;;;;;17.95;16.58;;;17.50;99.90;;;;;;5047658;28;20196;-87
2023/05/08 06:26:31;;;;;;;18.85;17.15;;;17.50;99.90;;;;;;5049092;28;20207;-87
2023/05/08 06:28:57;;;;;;;18.40;17.00;;;17.60;99.90;;;;;;5045247;28;20186;-87
2023/05/08 06:31:22;;;;;;;19.02;17.52;;;17.40;99.90;;;;;;5057745;28;20275;-86
2023/05/08 06:33:48;;;;;;;20.90;19.13;;;17.40;99.90;;;;;;5060314;28;20176;-88
2023/05/08 06:36:13;;;;;;;20.15;18.45;;;17.50;99.90;;;;;;5062510;28;20180;-87
2023/05/08 06:38:39;;;;;;;20.95;19.02;;;17.60;99.90;;;;;;5046611;28;20208;-87
2023/05/08 06:41:05;;;;;;;20.13;18.52;;;17.50;99.90;;;;;;5060371;28;20184;-89
2023/05/08 06:43:30;;;;;;;19.50;18.00;;;17.60;99.90;;;;;;5058402;28;20598;-89
2023/05/08 06:45:56;;;;;;;19.67;18.05;;;17.60;99.90;;;;;;5066342;28;20203;-88
2023/05/08 06:48:27;;;;;;;19.50;17.80;;;17.70;99.90;;;;;;5049203;28;20195;-87
2023/05/08 06:50:53;;;;;;;19.40;17.80;;;17.70;99.90;;;;;;5062780;28;20183;-89
2023/05/08 06:53:19;;;;;;;20.27;18.45;;;17.80;99.90;;;;;;5065479;28;20168;-90
2023/05/08 06:55:44;;;;;;;19.13;17.55;;;17.80;99.90;;;;;;5065854;28;20188;-88
2023/05/08 06:58:10;;;;;;;19.90;18.23;;;17.80;99.90;;;;;;5063354;28;20207;-89
2023/05/08 07:00:36;;;;;;;21.60;19.80;;;17.80;99.90;;;;;;5064439;28;20213;-88
2023/05/08 07:03:02;;;;;;;22.17;20.27;;;17.80;99.90;;;;;;5045726;28;20183;-88
2023/05/08 07:05:28;;;;;;;20.30;18.77;;;17.70;99.90;;;;;;5067802;28;20195;-88
2023/05/08 07:07:54;;;;;;;20.52;18.90;;;17.80;99.90;;;;;;5048649;28;20223;-88
2023/05/08 07:10:21;;;;;;;20.13;18.52;;;17.80;99.90;;;;;;5066029;28;20247;-88
2023/05/08 07:12:50;;;;;;;19.98;18.13;;;17.90;99.90;;;;;;5047805;28;20192;-88
2023/05/08 07:15:16;;;;;;;20.15;18.55;;;17.90;99.90;;;;;;5063449;28;20227;-90
2023/05/08 07:17:42;;;;;;;19.55;17.83;;;18.00;99.90;;;;;;5065812;28;20235;-90
2023/05/08 07:20:42;;;;;;;20.75;19.08;;;18.00;99.90;;;;;;5066767;28;20183;-92
2023/05/08 07:23:40;;;;;;;20.27;18.58;;;18.10;99.90;;;;;;5062178;28;20196;-90
2023/05/08 07:26:24;;;;;;;19.70;18.00;;;18.10;99.90;;;;;;5040047;28;20229;-89
2023/05/08 07:29:34;;;;;;;19.15;17.55;;;18.20;99.90;;;;;;5067239;28;20176;-90
2023/05/08 07:35:55;;;;;;;20.25;18.63;;;18.00;99.90;;;;;;5062795;28;20997;-88
2023/05/08 07:38:41;;;;;;;21.52;19.83;;;18.10;99.90;;;;;;5030346;28;20203;-90
2023/05/08 07:41:07;;;;;;;18.67;17.05;;;18.00;99.90;;;;;;5057685;28;20180;-89
2023/05/08 07:43:33;;;;;;;20.02;18.33;;;18.10;99.90;;;;;;5076116;28;20240;-88
2023/05/08 07:45:58;;;;;;;20.85;19.05;;;18.30;99.90;;;;;;5059842;28;20208;-88
2023/05/08 07:48:24;;;;;;;19.48;17.88;;;18.30;99.90;;;;;;5054941;28;20268;-88
2023/05/08 07:50:50;;;;;;;19.92;18.02;;;18.40;99.90;;;;;;5054460;28;20251;-88
2023/05/08 07:53:16;;;;;;;19.55;17.80;;;18.30;99.90;;;;;;5054235;28;20191;-88
2023/05/08 07:55:42;;;;;;;20.33;18.63;;;18.40;99.90;;;;;;5055001;28;20180;-89
2023/05/08 07:58:08;;;;;;;19.90;18.13;;;18.40;99.90;;;;;;5046384;28;20723;-88
2023/05/08 08:00:35;;;;;;;19.55;17.95;;;18.40;99.90;;;;;;5055637;28;20293;-89
2023/05/08 08:03:02;;;;;;;18.98;17.48;;;18.40;99.90;;;;;;5038528;28;20182;-89
2023/05/08 08:05:28;;;;;;;21.17;19.27;;;18.40;99.90;;;;;;5057135;28;20196;-88
2023/05/08 08:07:53;;;;;;;20.05;18.52;;;18.30;99.90;;;;;;5056161;28;20280;-86
2023/05/08 08:10:19;;;;;;;18.65;17.15;;;18.40;99.90;;;;;;5056955;28;20824;-88
2023/05/08 08:12:45;;;;;;;20.27;18.58;;;18.40;99.90;;;;;;5048465;28;20196;-89
2023/05/08 08:15:10;;;;;;;18.63;17.02;;;18.40;99.90;;;;;;5055084;28;20188;-89
2023/05/08 08:17:36;;;;;;;18.92;17.25;;;18.50;99.90;;;;;;5055358;28;20228;-88
2023/05/08 08:20:02;;;;;;;17.05;15.65;;;18.50;99.90;;;;;;5054261;28;20176;-88
2023/05/08 08:22:28;;;;;;;17.65;16.20;;;18.60;99.90;;;;;;5052968;28;20180;-88
2023/05/08 08:24:55;;;;;;;18.20;16.73;;;18.60;99.90;;;;;;5055240;28;20196;-87
2023/05/08 08:27:21;;;;;;;16.70;15.40;;;18.60;99.90;;;;;;5034008;28;20215;-89
2023/05/08 08:29:46;;;;;;;17.63;16.23;;;18.60;99.90;;;;;;5032893;28;20185;-91
2023/05/08 08:32:12;;;;;;;18.10;16.60;;;18.70;99.90;;;;;;5033643;28;20227;-91
2023/05/08 08:34:38;;;;;;;17.63;16.13;;;18.70;99.90;;;;;;5033241;28;20258;-86
2023/05/08 08:37:07;;;;;;;17.65;16.20;;;18.60;99.90;;;;;;5015575;28;20193;-88
2023/05/08 08:39:33;;;;;;;16.80;15.60;;;18.70;99.90;;;;;;5031008;28;20177;-88
2023/05/08 08:41:59;;;;;;;18.70;16.88;;;18.70;99.90;;;;;;5012509;28;20230;-89
2023/05/08 08:44:25;;;;;;;17.70;16.20;;;18.80;99.90;;;;;;5022702;28;20874;-88
2023/05/08 08:46:52;;;;;;;18.10;16.60;;;18.80;98.60;;;;;;5034172;28;20247;-87
2023/05/08 08:49:23;;;;;;;17.60;16.10;;;18.90;99.90;;;;;;5035053;28;20244;-89
2023/05/08 08:51:57;;;;;;;17.88;16.45;;;18.90;99.20;;;;;;5032748;28;20181;-88
2023/05/08 08:54:26;;;;;;;16.13;14.85;;;19.00;99.90;;;;;;5034946;28;20162;-88
2023/05/08 08:56:54;;;;;;;15.73;14.52;;;18.90;98.20;;;;;;5018320;28;20255;-88
2023/05/08 08:59:22;;;;;;;16.52;15.20;;;18.90;99.30;;;;;;5034214;28;20168;-89
2023/05/08 09:01:55;;;;;;;17.23;15.80;;;18.90;98.70;;;;;;5034936;28;20256;-88
2023/05/08 09:04:20;;;;;;;17.15;15.75;;;18.90;99.90;;;;;;5046864;28;20203;-89
2023/05/08 09:06:49;;;;;;;17.45;16.05;;;19.00;99.40;;;;;;5051617;28;20869;-88
2023/05/08 09:09:15;;;;;;;17.58;16.13;;;19.00;99.90;;;;;;5046636;28;20291;-87
2023/05/08 09:11:44;;;;;;;17.65;16.05;;;19.10;99.90;;;;;;5052822;28;20241;-88
2023/05/08 09:14:10;;;;;;;17.40;15.90;;;19.10;99.90;;;;;;5052707;28;20180;-87
2023/05/08 09:16:36;;;;;;;17.92;16.42;;;19.20;97.20;;;;;;5051554;28;20565;-89
2023/05/08 09:19:02;;;;;;;17.15;15.75;;;19.20;98.70;;;;;;5066536;28;20587;-87
2023/05/08 09:21:28;;;;;;;17.02;15.73;;;19.40;95.70;;;;;;5033647;28;20185;-87
2023/05/08 09:23:58;;;;;;;16.10;14.85;;;19.40;96.30;;;;;;5055097;28;20243;-88
2023/05/08 09:26:35;;;;;;;16.95;15.57;;;19.60;95.70;;;;;;5057439;28;20262;-87
2023/05/08 09:29:18;;;;;;;17.20;15.80;;;19.70;95.50;;;;;;5060370;28;20723;-89
2023/05/08 09:31:47;;;;;;;16.35;14.88;;;19.70;93.80;;;;;;5058942;28;20174;-89
2023/05/08 09:34:27;;;;;;;15.98;14.57;;;19.50;96.60;;;;;;5054178;28;20927;-89
2023/05/08 09:36:53;;;;;;;16.15;14.55;;;19.70;95.90;;;;;;5053051;28;20238;-86
2023/05/08 09:39:24;;;;;;;17.85;16.25;;;19.80;92.70;;;;;;5051686;28;20179;-87
2023/05/08 09:42:19;;;;;;;16.65;15.32;;;20.00;92.80;;;;;;5051814;28;20307;-89
2023/05/08 09:44:55;;;;;;;17.73;16.17;;;19.90;92.50;;;;;;5025773;28;20205;-88
2023/05/08 09:47:23;;;;;;;16.88;15.48;;;19.90;93.00;;;;;;5040529;28;20199;-89
2023/05/08 09:49:59;;;;;;;17.63;15.93;;;20.00;92.20;;;;;;5053562;28;20174;-88
2023/05/08 09:52:25;;;;;;;16.60;15.20;;;19.90;91.80;;;;;;5063969;28;20189;-90
2023/05/08 09:54:59;;;;;;;15.80;14.60;;;20.00;94.50;;;;;;5064699;28;20683;-89
2023/05/08 09:57:26;;;;;;;16.80;15.25;;;20.30;90.30;;;;;;5063244;28;20679;-89
2023/05/08 10:00:02;;;;;;;17.05;15.73;;;20.50;89.20;;;;;;5055488;28;20647;-90
2023/05/08 10:02:28;;;;;;;16.00;14.70;;;20.70;88.80;;;;;;5061395;28;20160;-89
2023/05/08 10:04:53;;;;;;;15.02;13.73;;;20.70;86.10;;;;;;5044135;28;20205;-89
2023/05/08 10:07:37;;;;;;;15.82;14.50;;;20.70;84.30;;;;;;5061504;28;20786;-90
2023/05/08 10:10:05;;;;;;;17.27;15.80;;;20.90;84.80;;;;;;5042361;28;20178;-90
2023/05/08 10:12:32;;;;;;;16.58;15.32;;;21.00;84.30;;;;;;5064811;28;20207;-88
2023/05/08 10:14:58;;;;;;;16.30;15.02;;;21.10;85.20;;;;;;5059546;28;20760;-89
2023/05/08 10:18:13;;;;;;;19.95;18.20;;;21.00;86.50;;;;;;5063751;28;20203;-89
2023/05/08 10:20:53;;;;;;;18.77;17.23;;;21.00;86.00;;;;;;5046673;28;20215;-88
2023/05/08 10:23:22;;;;;;;17.83;16.33;;;21.10;86.30;;;;;;5039684;28;20183;-88
2023/05/08 10:26:20;;;;;;;17.55;16.13;;;21.30;83.80;;;;;;5041095;28;20206;-88
2023/05/08 10:28:54;;;;;;;19.20;17.70;;;21.50;81.00;;;;;;5065158;28;20347;-89
2023/05/08 10:31:23;;;;;;;18.80;17.10;;;21.40;82.40;;;;;;5062007;28;20226;-89
2023/05/08 10:33:53;;;;;;;18.13;16.73;;;21.30;83.40;;;;;;5058318;28;20187;-89
2023/05/08 10:36:20;;;;;;;19.23;17.70;;;21.20;82.90;;;;;;5065092;28;20183;-88
2023/05/08 10:38:47;;;;;;;19.45;17.75;;;21.10;83.60;;;;;;5066355;28;21660;-88
2023/05/08 10:41:23;;;;;;;19.02;17.52;;;21.00;84.10;;;;;;5057182;28;20301;-90
2023/05/08 10:43:49;;;;;;;18.25;16.85;;;20.90;84.90;;;;;;5059842;28;20231;-88
2023/05/08 10:46:42;;;;;;;18.25;16.55;;;20.90;84.20;;;;;;5065042;28;20230;-88
2023/05/08 10:49:17;;;;;;;17.75;16.35;;;21.00;84.50;;;;;;5047125;28;20210;-90
2023/05/08 10:52:11;;;;;;;17.23;15.93;;;21.10;83.70;;;;;;5067089;28;20167;-88
2023/05/08 10:54:52;;;;;;;16.23;15.02;;;21.20;84.40;;;;;;5062596;28;20191;-89
2023/05/08 10:57:18;;;;;;;16.70;15.25;;;21.40;84.70;;;;;;5057731;28;20195;-89
2023/05/08 10:59:47;;;;;;;15.63;14.50;;;21.40;82.90;;;;;;5065347;28;20189;-90
2023/05/08 11:02:14;;;;;;;15.38;14.25;;;21.60;83.90;;;;;;5057025;28;20317;-88
2023/05/08 11:04:39;;;;;;;14.55;13.45;;;21.70;81.40;;;;;;5051045;28;20757;-90
2023/05/08 11:07:06;;;;;;;17.15;15.68;;;21.70;79.60;;;;;;5075463;28;20200;-89
2023/05/08 11:09:40;;;;;;;16.27;14.90;;;21.80;78.10;;;;;;5068759;28;20188;-88
2023/05/08 11:12:19;;;;;;;17.63;16.10;;;22.00;77.10;;;;;;5062278;28;20568;-89
2023/05/08 11:14:54;;;;;;;17.05;15.52;;;21.90;77.70;;;;;;5047174;28;20219;-90
2023/05/08 11:17:25;;;;;;;15.85;14.52;;;21.90;79.30;;;;;;5048309;28;20203;-91
2023/05/08 11:19:56;;;;;;;15.15;14.05;;;21.70;80.70;;;;;;5038528;28;20180;-88
2023/05/08 11:22:27;;;;;;;15.25;14.18;;;21.70;78.90;;;;;;5058295;28;20180;-89
2023/05/08 11:25:06;;;;;;;14.35;13.35;;;21.70;80.50;;;;;;5050876;28;20260;-89
2023/05/08 11:28:03;;;;;;;14.32;13.32;;;21.70;79.00;;;;;;5038056;28;20185;-87
2023/05/08 11:30:33;;;;;;;13.23;12.23;;;21.50;78.70;;;;;;5036855;28;20171;-88
2023/05/08 11:33:07;;;;;;;12.85;11.95;;;21.40;81.60;;;;;;5038990;28;20186;-87
2023/05/08 11:35:46;;;;;;;15.80;14.48;;;21.50;81.00;;;;;;5039119;28;20180;-87
2023/05/08 11:38:31;;;;;;;15.25;14.00;;;21.30;83.90;;;;;;5035880;28;20202;-87
2023/05/08 11:41:18;;;;;;;16.08;14.80;;;21.40;83.30;;;;;;5042716;28;20191;-89
2023/05/08 11:44:18;;;;;;;15.60;14.50;;;21.30;83.10;;;;;;5043082;28;20190;-88
2023/05/08 11:46:51;;;;;;;16.75;15.35;;;21.30;84.80;;;;;;5034264;28;20242;-87
2023/05/08 11:49:17;;;;;;;16.13;14.93;;;21.20;84.50;;;;;;5037399;28;20187;-87
2023/05/08 11:51:56;;;;;;;15.48;14.18;;;21.10;84.90;;;;;;5040057;28;20193;-88
2023/05/08 11:54:23;;;;;;;14.55;13.43;;;21.00;85.30;;;;;;5037506;28;20180;-87
2023/05/08 11:56:53;;;;;;;12.95;11.93;;;21.20;84.40;;;;;;5039432;28;20219;-87
2023/05/08 11:59:36;;;;;;;12.10;11.20;;;21.40;83.50;;;;;;5033299;28;20195;-89
2023/05/08 12:02:02;;;;;;;13.32;12.23;;;21.80;80.70;;;;;;5044446;28;20690;-87
2023/05/08 12:04:27;;;;;;;13.25;12.18;;;21.70;81.10;;;;;;5041585;28;20303;-87
2023/05/08 12:06:57;;;;;;;12.45;11.45;;;21.70;82.80;;;;;;5040253;28;20858;-86
2023/05/08 12:09:24;;;;;;;10.82;9.93;;;21.70;82.30;;;;;;5041413;28;20177;-87
2023/05/08 12:11:56;;;;;;;10.80;9.93;;;21.70;81.90;;;;;;5028703;28;20192;-87
2023/05/08 12:14:24;;;;;;;11.20;10.30;;;21.90;81.00;;;;;;5024822;28;20196;-87
2023/05/08 12:16:50;;;;;;;10.57;9.88;;;21.80;79.40;;;;;;5041737;28;20200;-86
2023/05/08 12:19:25;;;;;;;10.60;9.80;;;21.80;80.10;;;;;;5042090;28;20198;-88
2023/05/08 12:21:51;;;;;;;9.73;9.00;;;21.90;80.00;;;;;;5029520;28;20194;-88
2023/05/08 12:24:21;;;;;;;9.75;8.95;;;21.80;79.60;;;;;;5038502;28;20629;-87
2023/05/08 12:26:47;;;;;;;9.68;8.88;;;21.80;78.90;;;;;;5043691;28;20227;-88
2023/05/08 12:29:13;;;;;;;9.68;8.98;;;22.10;78.60;;;;;;5038028;28;20679;-86
2023/05/08 12:31:39;;;;;;;9.68;8.98;;;22.10;77.90;;;;;;5038952;28;20207;-86
2023/05/08 12:34:06;;;;;;;9.20;8.60;;;22.10;78.70;;;;;;5031411;28;20184;-87
2023/05/08 12:36:38;;;;;;;9.00;8.30;;;22.20;77.10;;;;;;5035308;28;20727;-88
2023/05/08 12:39:17;;;;;;;8.98;8.15;;;22.70;74.50;;;;;;5035873;28;20214;-87
2023/05/08 12:41:47;;;;;;;8.10;7.40;;;22.90;73.70;;;;;;5040200;28;20736;-87
2023/05/08 12:44:23;;;;;;;9.40;8.80;;;22.90;75.10;;;;;;5041552;28;21601;-89
2023/05/08 12:46:56;;;;;;;9.48;8.77;;;22.60;75.40;;;;;;5039248;28;20215;-87
2023/05/08 12:49:29;;;;;;;8.48;7.95;;;22.20;75.50;;;;;;5040731;28;20688;-88